Time;durP1;ratioP1;P1;durP2;ratioP2;P2;SDS_P1;SDS_P2;PMS_P1;PMS_P2;Temp;Humidity;BMP_temperature;BMP_pressure;BME280_temperature;BME280_humidity;BME280_pressure;Samples;Min_cycle;Max_cycle;Signal;HPM_P1;HPM_P2
2022/05/31 00:00:56;;;;;;;6.00;2.00;;;24.70;99.90;;;;;;4954832;28;20047;-55
2022/05/31 00:03:21;;;;;;;7.05;2.00;;;24.70;99.90;;;;;;4965680;28;20026;-54
2022/05/31 00:05:47;;;;;;;7.43;2.42;;;24.60;99.90;;;;;;4961808;28;20031;-54
2022/05/31 00:08:13;;;;;;;7.10;2.33;;;24.60;99.90;;;;;;4963659;28;20027;-53
2022/05/31 00:10:39;;;;;;;5.68;2.78;;;24.60;99.90;;;;;;4956466;28;20031;-52
2022/05/31 00:13:05;;;;;;;10.38;2.60;;;24.60;99.90;;;;;;4953946;28;20101;-52
2022/05/31 00:15:32;;;;;;;5.30;2.00;;;24.50;99.90;;;;;;4955876;28;20372;-52
2022/05/31 00:17:58;;;;;;;5.13;1.90;;;24.50;99.90;;;;;;4963020;28;20506;-54
2022/05/31 00:20:24;;;;;;;7.30;2.50;;;24.50;99.90;;;;;;4955484;28;20051;-51
2022/05/31 00:22:50;;;;;;;6.97;2.67;;;24.50;99.90;;;;;;4956238;28;20070;-53
2022/05/31 00:25:17;;;;;;;4.78;1.73;;;24.50;99.90;;;;;;4956856;28;20046;-53
2022/05/31 00:27:43;;;;;;;4.18;1.80;;;24.50;99.90;;;;;;4954931;28;20123;-53
2022/05/31 00:30:11;;;;;;;7.35;1.63;;;24.50;99.90;;;;;;4969005;28;20102;-54
2022/05/31 00:32:41;;;;;;;4.20;1.98;;;24.50;99.90;;;;;;4955130;29;20035;-53
2022/05/31 00:35:14;;;;;;;4.85;1.73;;;24.50;99.90;;;;;;4960525;28;20031;-53
2022/05/31 00:37:40;;;;;;;6.20;1.83;;;24.50;99.90;;;;;;4958982;28;20023;-54
2022/05/31 00:40:08;;;;;;;8.23;1.92;;;24.60;99.90;;;;;;4959426;28;20611;-51
2022/05/31 00:42:51;;;;;;;;;;;24.60;99.90;;;;;;4957750;28;20027;-54
2022/05/31 00:45:18;;;;;;;5.03;1.80;;;24.60;99.90;;;;;;4965949;28;19954;-52
2022/05/31 00:47:44;;;;;;;4.03;2.28;;;24.70;99.90;;;;;;4972045;28;20027;-52
2022/05/31 00:50:22;;;;;;;5.97;2.60;;;24.70;99.90;;;;;;4967887;28;20522;-52
2022/05/31 00:52:48;;;;;;;;;;;24.60;99.90;;;;;;4954591;28;20368;-52
2022/05/31 00:55:50;;;;;;;6.63;2.25;;;24.60;99.90;;;;;;4956421;28;19910;-52
2022/05/31 00:58:38;;;;;;;3.70;2.28;;;24.50;99.90;;;;;;4922155;29;20062;-53
2022/05/31 01:01:10;;;;;;;5.90;2.17;;;24.50;99.90;;;;;;4998116;23;20050;-58
2022/05/31 01:03:39;;;;;;;5.35;2.40;;;24.50;99.90;;;;;;4994085;28;20034;-59
2022/05/31 01:06:06;;;;;;;9.27;2.35;;;24.40;99.90;;;;;;4991676;28;20030;-61
2022/05/31 01:08:34;;;;;;;3.42;1.77;;;24.40;99.90;;;;;;4986766;28;20050;-66
2022/05/31 01:11:01;;;;;;;6.70;2.50;;;24.30;99.90;;;;;;4988338;28;20019;-61
2022/05/31 01:13:28;;;;;;;5.50;2.65;;;24.40;99.90;;;;;;4986373;28;20130;-62
2022/05/31 01:16:06;;;;;;;5.70;2.40;;;24.40;99.90;;;;;;4994132;28;20120;-62
2022/05/31 01:18:32;;;;;;;7.70;1.88;;;24.30;99.90;;;;;;4988644;28;20280;-58
2022/05/31 01:21:00;;;;;;;10.15;2.47;;;24.30;99.90;;;;;;4989411;28;20026;-60
2022/05/31 01:23:30;;;;;;;8.50;2.03;;;24.30;99.90;;;;;;4992920;28;20022;-59
2022/05/31 01:26:18;;;;;;;7.35;2.65;;;24.30;99.90;;;;;;4988098;28;20077;-59
2022/05/31 01:28:56;;;;;;;;;;;24.20;99.90;;;;;;4986232;28;20255;-59
2022/05/31 01:31:46;;;;;;;8.43;2.75;;;24.20;99.90;;;;;;4980133;28;19906;-56
2022/05/31 01:34:31;;;;;;;3.80;2.17;;;24.10;99.90;;;;;;4975143;28;20054;-59
2022/05/31 01:36:58;;;;;;;8.57;2.70;;;24.10;99.90;;;;;;4978578;28;20525;-58
2022/05/31 01:39:44;;;;;;;4.70;2.00;;;24.10;99.90;;;;;;4981659;28;20050;-57
2022/05/31 01:42:14;;;;;;;9.25;2.72;;;24.00;99.90;;;;;;4981011;28;20382;-60
2022/05/31 01:44:49;;;;;;;7.35;2.47;;;24.00;99.90;;;;;;4985699;28;20022;-61
2022/05/31 01:47:16;;;;;;;7.30;1.92;;;24.00;99.90;;;;;;4983302;28;20021;-61
2022/05/31 01:49:47;;;;;;;2.55;1.48;;;24.00;99.90;;;;;;4993278;28;20072;-60
2022/05/31 01:52:13;;;;;;;5.90;1.83;;;24.00;99.90;;;;;;4992889;28;20027;-60
2022/05/31 01:54:40;;;;;;;5.80;1.58;;;23.90;99.90;;;;;;4990718;28;20054;-60
2022/05/31 01:57:08;;;;;;;4.07;1.73;;;23.90;99.90;;;;;;4992105;28;20189;-57
2022/05/31 01:59:41;;;;;;;2.42;1.58;;;23.90;99.90;;;;;;4984803;28;20067;-60
2022/05/31 02:02:07;;;;;;;6.15;1.73;;;23.90;99.90;;;;;;4986458;28;20061;-58
2022/05/31 02:04:35;;;;;;;5.85;1.80;;;23.80;99.90;;;;;;4992982;28;20462;-62
2022/05/31 02:07:11;;;;;;;7.68;1.52;;;23.80;99.90;;;;;;4990737;28;20503;-59
2022/05/31 02:09:38;;;;;;;7.32;2.00;;;23.80;99.90;;;;;;4984374;28;20025;-60
2022/05/31 02:12:06;;;;;;;6.45;2.10;;;23.80;99.90;;;;;;4992884;28;20042;-58
2022/05/31 02:14:32;;;;;;;;;;;23.80;99.90;;;;;;4984222;28;20042;-61
2022/05/31 02:16:58;;;;;;;30.77;5.20;;;23.90;99.90;;;;;;4983708;28;19914;-64
2022/05/31 02:19:25;;;;;;;42.70;8.43;;;23.90;99.90;;;;;;4980236;28;20545;-64
2022/05/31 02:21:53;;;;;;;28.10;6.18;;;23.90;99.90;;;;;;4985788;28;20019;-63
2022/05/31 02:24:19;;;;;;;29.05;5.53;;;24.00;99.90;;;;;;4987009;28;20035;-64
2022/05/31 02:26:45;;;;;;;15.70;3.42;;;24.10;99.90;;;;;;4986718;28;20352;-64
2022/05/31 02:29:14;;;;;;;33.97;6.78;;;24.20;99.90;;;;;;4982335;28;20125;-63
2022/05/31 02:31:41;;;;;;;28.20;4.97;;;24.30;99.90;;;;;;4989277;28;20022;-63
2022/05/31 02:34:08;;;;;;;30.60;6.20;;;24.40;99.90;;;;;;4988040;28;20038;-63
2022/05/31 02:36:34;;;;;;;23.00;4.25;;;24.40;99.90;;;;;;4989247;28;20058;-63
2022/05/31 02:39:01;;;;;;;18.30;3.10;;;24.50;99.90;;;;;;4987074;28;20060;-64
2022/05/31 02:41:28;;;;;;;13.93;2.75;;;24.50;99.90;;;;;;4986950;28;20541;-64
2022/05/31 02:43:55;;;;;;;19.55;4.13;;;24.60;99.90;;;;;;4991422;28;20026;-64
2022/05/31 02:46:22;;;;;;;11.13;2.60;;;24.60;99.90;;;;;;4992763;28;20030;-63
2022/05/31 02:48:48;;;;;;;10.25;2.13;;;24.60;99.90;;;;;;4991973;28;20022;-63
2022/05/31 02:51:14;;;;;;;13.32;3.05;;;24.60;99.90;;;;;;4985457;28;20041;-64
2022/05/31 02:53:40;;;;;;;5.00;2.00;;;24.60;99.90;;;;;;5003602;28;20023;-65
2022/05/31 02:56:07;;;;;;;14.93;2.70;;;24.60;99.90;;;;;;4989496;28;20022;-64
2022/05/31 02:58:33;;;;;;;18.70;3.03;;;24.60;99.90;;;;;;4990680;28;20030;-65
2022/05/31 03:01:00;;;;;;;10.30;2.03;;;24.60;99.90;;;;;;5027766;23;20049;-53
2022/05/31 03:03:27;;;;;;;10.93;2.08;;;24.50;99.90;;;;;;5030494;28;20037;-53
2022/05/31 03:05:53;;;;;;;10.07;2.38;;;24.60;99.90;;;;;;5030327;28;20550;-52
2022/05/31 03:08:19;;;;;;;10.80;1.88;;;24.50;99.90;;;;;;5031891;28;20468;-52
2022/05/31 03:10:52;;;;;;;3.45;1.52;;;24.50;99.90;;;;;;5031236;28;20021;-52
2022/05/31 03:13:22;;;;;;;6.82;1.70;;;24.50;99.90;;;;;;5031412;28;20387;-52
2022/05/31 03:15:48;;;;;;;6.50;2.05;;;24.40;99.90;;;;;;5031500;28;20164;-51
2022/05/31 03:18:19;;;;;;;5.30;2.03;;;24.40;99.90;;;;;;5031376;28;20492;-52
2022/05/31 03:20:48;;;;;;;3.92;1.48;;;24.30;99.90;;;;;;5031338;28;20033;-52
2022/05/31 03:23:40;;;;;;;7.07;2.28;;;24.20;99.90;;;;;;5031266;28;20910;-52
2022/05/31 03:26:08;;;;;;;5.38;1.88;;;24.10;99.90;;;;;;5022372;28;20092;-53
2022/05/31 03:28:34;;;;;;;;;;;24.00;99.90;;;;;;5031109;28;20024;-54
2022/05/31 03:31:04;;;;;;;5.55;2.00;;;24.00;99.90;;;;;;5031375;28;19909;-53
2022/05/31 03:33:30;;;;;;;10.52;3.35;;;23.80;99.90;;;;;;5029818;28;20039;-52
2022/05/31 03:35:55;;;;;;;9.55;2.60;;;23.70;99.90;;;;;;5031131;28;20075;-52
2022/05/31 03:38:21;;;;;;;7.60;2.53;;;23.60;99.90;;;;;;5031220;28;20473;-52
2022/05/31 03:40:56;;;;;;;5.57;2.47;;;23.50;99.90;;;;;;5031136;28;20026;-53
2022/05/31 03:43:23;;;;;;;7.80;2.70;;;23.50;99.90;;;;;;5031184;28;20025;-52
2022/05/31 03:45:49;;;;;;;5.82;2.60;;;23.50;99.90;;;;;;5031382;28;20072;-52
2022/05/31 03:48:15;;;;;;;8.15;2.35;;;23.50;99.90;;;;;;5030954;28;20430;-53
2022/05/31 03:50:41;;;;;;;5.88;1.90;;;23.50;99.90;;;;;;5031119;28;20376;-52
2022/05/31 03:53:08;;;;;;;8.10;1.80;;;23.50;99.90;;;;;;5031051;28;20072;-52
2022/05/31 03:55:40;;;;;;;;;;;23.60;99.90;;;;;;5031321;28;20121;-52
2022/05/31 03:58:06;;;;;;;7.57;2.22;;;23.60;99.90;;;;;;5030966;28;19905;-52
2022/05/31 04:00:32;;;;;;;6.53;1.75;;;23.50;99.90;;;;;;5031731;28;20234;-52
2022/05/31 04:02:58;;;;;;;6.38;2.63;;;23.60;99.90;;;;;;5030947;28;20075;-52
2022/05/31 04:05:25;;;;;;;10.52;2.40;;;23.60;99.90;;;;;;5031043;28;20509;-53
2022/05/31 04:07:52;;;;;;;7.13;1.83;;;23.60;99.90;;;;;;5030821;28;20056;-52
2022/05/31 04:10:17;;;;;;;7.10;2.22;;;23.60;99.90;;;;;;5029591;28;20036;-52
2022/05/31 04:12:43;;;;;;;12.13;2.33;;;23.60;99.90;;;;;;5030500;28;20030;-52
2022/05/31 04:15:10;;;;;;;5.78;2.00;;;23.60;99.90;;;;;;5030912;28;20029;-52
2022/05/31 04:17:36;;;;;;;4.90;2.25;;;23.60;99.90;;;;;;5030833;28;20083;-52
2022/05/31 04:20:01;;;;;;;3.88;1.60;;;23.60;99.90;;;;;;5030667;28;20025;-52
2022/05/31 04:22:27;;;;;;;5.53;1.92;;;23.50;99.90;;;;;;5030972;28;20025;-52
2022/05/31 04:24:57;;;;;;;5.72;2.00;;;23.50;99.90;;;;;;5029519;28;20480;-52
2022/05/31 04:27:23;;;;;;;9.82;3.60;;;23.50;99.90;;;;;;5030818;28;20469;-51
2022/05/31 04:29:49;;;;;;;4.25;2.17;;;23.50;99.90;;;;;;5030554;28;20029;-51
2022/05/31 04:32:16;;;;;;;3.63;1.98;;;23.40;99.90;;;;;;5030576;28;20029;-52
2022/05/31 04:34:43;;;;;;;5.57;2.22;;;23.40;99.90;;;;;;5030434;28;20030;-53
2022/05/31 04:37:11;;;;;;;6.72;2.08;;;23.40;99.90;;;;;;5030650;28;20515;-53
2022/05/31 04:39:37;;;;;;;5.57;2.42;;;23.40;99.90;;;;;;5032486;28;20030;-53
2022/05/31 04:42:03;;;;;;;5.75;2.42;;;23.30;99.90;;;;;;5034120;28;20380;-53
2022/05/31 04:44:29;;;;;;;9.07;3.70;;;23.20;99.90;;;;;;5034355;28;20025;-52
2022/05/31 04:46:54;;;;;;;4.63;1.98;;;23.20;99.90;;;;;;5033125;28;20018;-53
2022/05/31 04:49:21;;;;;;;7.13;2.17;;;23.20;99.90;;;;;;5034114;28;20040;-53
2022/05/31 04:51:47;;;;;;;8.60;2.65;;;23.10;99.90;;;;;;5034015;28;20484;-52
2022/05/31 04:54:16;;;;;;;6.35;2.85;;;23.00;99.90;;;;;;5034031;28;20033;-52
2022/05/31 04:56:42;;;;;;;6.15;2.13;;;23.00;99.90;;;;;;5033780;28;20025;-53
2022/05/31 04:59:08;;;;;;;9.02;2.88;;;23.00;99.90;;;;;;5033937;28;20036;-52
2022/05/31 05:01:35;;;;;;;8.60;2.53;;;23.00;99.90;;;;;;5033972;28;20052;-53
2022/05/31 05:04:01;;;;;;;8.68;3.08;;;23.00;99.90;;;;;;5033694;28;20392;-53
2022/05/31 05:06:27;;;;;;;11.07;2.25;;;22.90;99.90;;;;;;5034134;28;20104;-52
2022/05/31 05:08:52;;;;;;;19.88;4.15;;;22.80;99.90;;;;;;5033820;28;20487;-53
2022/05/31 05:11:21;;;;;;;19.00;3.50;;;22.90;99.90;;;;;;5033625;28;20444;-52
2022/05/31 05:13:48;;;;;;;10.65;3.47;;;22.80;99.90;;;;;;5033609;28;20033;-53
2022/05/31 05:16:15;;;;;;;17.30;3.42;;;22.90;99.90;;;;;;5033645;28;20024;-52
2022/05/31 05:18:42;;;;;;;11.95;2.20;;;22.90;99.90;;;;;;5033515;28;20061;-53
2022/05/31 05:21:11;;;;;;;7.72;2.60;;;22.80;99.90;;;;;;5033438;28;20021;-52
2022/05/31 05:23:38;;;;;;;8.32;2.47;;;22.80;99.90;;;;;;5033603;28;20116;-52
2022/05/31 05:26:04;;;;;;;10.35;2.97;;;22.70;99.90;;;;;;5033229;28;20094;-53
2022/05/31 05:31:30;;;;;;;11.13;4.03;;;22.70;99.90;;;;;;5033539;28;20056;-53
2022/05/31 05:33:57;;;;;;;10.05;3.53;;;22.70;99.90;;;;;;5033456;28;20041;-53
2022/05/31 05:36:24;;;;;;;11.52;3.13;;;22.70;99.90;;;;;;5033221;28;20030;-52
2022/05/31 05:38:50;;;;;;;10.70;3.45;;;22.70;99.90;;;;;;5033200;28;20049;-52
2022/05/31 05:41:18;;;;;;;10.18;3.50;;;22.70;99.90;;;;;;5031854;28;20109;-52
2022/05/31 05:43:44;;;;;;;;;;;22.70;99.90;;;;;;5033497;28;20380;-53
2022/05/31 05:46:19;;;;;;;14.57;8.68;;;22.60;99.90;;;;;;5033041;28;19912;-53
2022/05/31 05:48:45;;;;;;;14.40;8.52;;;22.60;99.90;;;;;;5032759;28;20104;-53
2022/05/31 05:51:16;;;;;;;15.38;6.57;;;22.60;99.90;;;;;;5032321;28;20029;-52
2022/05/31 05:53:42;;;;;;;14.88;4.05;;;22.60;99.90;;;;;;5031422;28;20033;-53
2022/05/31 05:56:08;;;;;;;9.15;2.70;;;22.60;99.90;;;;;;5032733;28;20445;-53
2022/05/31 05:58:35;;;;;;;10.25;3.35;;;22.60;99.90;;;;;;5032651;28;20095;-52
2022/05/31 06:01:02;;;;;;;11.85;3.75;;;22.60;99.90;;;;;;5032634;28;20041;-53
2022/05/31 06:03:34;;;;;;;7.80;2.88;;;22.70;99.90;;;;;;5032928;28;20429;-54
2022/05/31 06:06:00;;;;;;;10.10;2.83;;;22.70;99.90;;;;;;5032811;28;20032;-53
2022/05/31 06:08:32;;;;;;;5.28;3.10;;;22.80;99.90;;;;;;5032837;28;20017;-53
2022/05/31 06:11:24;;;;;;;10.93;3.13;;;22.80;99.90;;;;;;5031324;28;20025;-55
2022/05/31 06:13:55;;;;;;;11.80;3.42;;;22.90;99.90;;;;;;5031155;28;20038;-54
2022/05/31 06:16:26;;;;;;;11.00;3.53;;;23.00;99.90;;;;;;5032408;28;20032;-54
2022/05/31 06:19:15;;;;;;;9.40;2.85;;;23.00;99.90;;;;;;5032572;28;20080;-55
2022/05/31 06:21:43;;;;;;;6.28;2.65;;;23.10;99.90;;;;;;5032441;28;20021;-54
2022/05/31 06:24:09;;;;;;;9.50;2.97;;;23.10;99.90;;;;;;5032212;28;20071;-54
2022/05/31 06:26:35;;;;;;;15.60;3.58;;;23.20;99.90;;;;;;5032218;28;20021;-54
2022/05/31 06:29:03;;;;;;;18.23;11.80;;;23.30;99.90;;;;;;5032421;28;20453;-55
2022/05/31 06:31:29;;;;;;;10.52;4.65;;;23.30;99.90;;;;;;5032155;28;20057;-54
2022/05/31 06:33:55;;;;;;;10.85;4.03;;;23.30;99.90;;;;;;5032088;28;20065;-54
2022/05/31 06:36:21;;;;;;;10.13;3.25;;;23.40;99.90;;;;;;5032041;28;20456;-54
2022/05/31 06:38:46;;;;;;;12.70;3.92;;;23.40;99.90;;;;;;5032153;28;20108;-54
2022/05/31 06:41:13;;;;;;;20.80;9.13;;;23.40;99.90;;;;;;5032082;28;20543;-52
2022/05/31 06:43:39;;;;;;;9.97;5.10;;;23.50;99.90;;;;;;5031737;28;20025;-52
2022/05/31 06:46:11;;;;;;;9.55;3.25;;;23.60;99.90;;;;;;5032014;28;20034;-52
2022/05/31 06:48:36;;;;;;;9.35;2.97;;;23.60;99.90;;;;;;5031804;28;20104;-53
2022/05/31 06:51:07;;;;;;;9.65;3.20;;;23.70;99.90;;;;;;5032091;28;20143;-54
2022/05/31 06:59:02;;;;;;;19.40;4.20;;;23.90;99.90;;;;;;5031950;28;20091;-53
2022/05/31 07:01:31;;;;;;;7.45;3.30;;;24.00;99.90;;;;;;5031510;28;20034;-53
2022/05/31 07:04:00;;;;;;;7.82;3.08;;;24.00;99.90;;;;;;5030693;28;20029;-53
2022/05/31 07:06:27;;;;;;;10.50;3.03;;;24.10;99.90;;;;;;5030279;28;20026;-54
2022/05/31 07:08:53;;;;;;;6.67;2.20;;;24.10;99.90;;;;;;5031559;28;20024;-53
2022/05/31 07:11:20;;;;;;;12.13;2.53;;;24.10;99.90;;;;;;5031404;28;20051;-53
2022/05/31 07:13:46;;;;;;;9.38;2.88;;;24.20;99.90;;;;;;5031393;28;20037;-54
2022/05/31 07:16:12;;;;;;;18.08;3.67;;;24.30;99.90;;;;;;5031249;28;20049;-54
2022/05/31 07:18:38;;;;;;;20.08;3.15;;;24.30;99.90;;;;;;5031633;28;20492;-54
2022/05/31 07:21:04;;;;;;;11.13;4.03;;;24.30;99.90;;;;;;5030501;28;20025;-54
2022/05/31 07:23:30;;;;;;;8.07;3.38;;;24.20;99.90;;;;;;5031487;28;20028;-53
2022/05/31 07:25:57;;;;;;;10.85;3.88;;;24.30;99.90;;;;;;5031442;28;20163;-54
2022/05/31 07:28:23;;;;;;;;;;;24.30;99.90;;;;;;5031712;28;20021;-54
2022/05/31 07:30:49;;;;;;;8.48;3.08;;;24.30;99.90;;;;;;5031276;28;20323;-53
2022/05/31 07:33:14;;;;;;;8.38;3.67;;;24.40;99.90;;;;;;5030933;28;20041;-54
2022/05/31 07:35:41;;;;;;;9.63;3.15;;;24.40;99.90;;;;;;5030998;28;20029;-54
2022/05/31 07:38:07;;;;;;;5.88;3.03;;;24.40;99.90;;;;;;5031091;28;20048;-53
2022/05/31 07:40:34;;;;;;;8.52;2.88;;;24.50;99.90;;;;;;5031200;28;20461;-53
2022/05/31 07:43:00;;;;;;;5.20;2.80;;;24.50;99.90;;;;;;5031096;28;20041;-53
2022/05/31 07:45:26;;;;;;;14.63;3.70;;;24.50;99.90;;;;;;5030765;28;20036;-53
2022/05/31 07:47:52;;;;;;;10.25;3.03;;;24.50;99.90;;;;;;5030918;28;20029;-53
2022/05/31 07:50:17;;;;;;;9.15;2.88;;;24.60;99.90;;;;;;5030784;28;20100;-55
2022/05/31 07:52:43;;;;;;;11.55;3.55;;;24.60;99.90;;;;;;5030799;28;20500;-54
2022/05/31 07:55:10;;;;;;;14.93;7.95;;;24.60;99.90;;;;;;5030759;28;20033;-54
2022/05/31 08:00:20;;;;;;;14.00;6.40;;;24.70;99.90;;;;;;5030851;28;20123;-53
2022/05/31 08:02:46;;;;;;;9.73;3.83;;;24.70;99.90;;;;;;5029486;28;20025;-53
2022/05/31 08:05:13;;;;;;;14.35;6.88;;;24.80;99.90;;;;;;5030835;28;20072;-54
2022/05/31 08:07:39;;;;;;;11.13;6.35;;;24.80;99.90;;;;;;5030701;28;20040;-53
2022/05/31 08:10:06;;;;;;;14.70;3.25;;;24.80;99.90;;;;;;5030996;28;20021;-54
2022/05/31 08:12:32;;;;;;;7.68;3.70;;;24.80;99.90;;;;;;5030511;28;20025;-53
2022/05/31 08:14:57;;;;;;;12.77;3.00;;;24.90;99.90;;;;;;5032021;28;20049;-53
2022/05/31 08:17:23;;;;;;;8.70;3.42;;;24.90;99.90;;;;;;5034713;28;20030;-54
2022/05/31 08:19:49;;;;;;;10.85;2.78;;;24.90;99.90;;;;;;5034498;28;20039;-54
2022/05/31 08:22:15;;;;;;;9.85;3.08;;;24.90;99.90;;;;;;5034573;28;20103;-53
2022/05/31 08:24:40;;;;;;;6.05;2.75;;;25.00;99.90;;;;;;5034400;28;20040;-53
2022/05/31 08:27:06;;;;;;;5.82;2.67;;;25.00;99.90;;;;;;5034770;28;20417;-54
2022/05/31 08:29:32;;;;;;;7.20;2.38;;;25.00;99.90;;;;;;5034413;28;20022;-53
2022/05/31 08:31:58;;;;;;;5.72;2.65;;;25.00;99.90;;;;;;5034663;28;20033;-54
2022/05/31 08:34:27;;;;;;;5.88;2.35;;;25.00;99.90;;;;;;5034278;28;20038;-54
2022/05/31 08:36:53;;;;;;;6.03;2.05;;;25.00;99.90;;;;;;5034192;28;20029;-54
2022/05/31 08:39:19;;;;;;;6.65;3.78;;;25.10;99.90;;;;;;5034230;28;20134;-54
2022/05/31 08:41:48;;;;;;;4.85;2.08;;;25.10;99.90;;;;;;5034130;28;20162;-54
2022/05/31 08:44:37;;;;;;;7.32;2.42;;;25.20;99.90;;;;;;5034240;28;20037;-54
2022/05/31 08:47:20;;;;;;;8.07;2.40;;;25.20;99.90;;;;;;5032756;28;20381;-55
2022/05/31 08:52:58;;;;;;;6.30;2.25;;;25.20;99.90;;;;;;5024329;28;20388;-54
2022/05/31 08:58:19;;;;;;;14.27;3.78;;;25.20;99.90;;;;;;5034160;28;20032;-54
2022/05/31 09:00:49;;;;;;;6.22;1.98;;;25.20;99.90;;;;;;5033530;28;20037;-54
2022/05/31 09:03:24;;;;;;;8.75;2.63;;;25.10;99.90;;;;;;5033910;28;20025;-54
2022/05/31 09:05:59;;;;;;;5.75;2.63;;;25.10;99.90;;;;;;5033649;28;20504;-54
2022/05/31 09:08:33;;;;;;;6.43;1.75;;;25.10;99.90;;;;;;5033829;28;20025;-54
2022/05/31 09:11:39;;;;;;;8.00;2.40;;;25.10;99.90;;;;;;5033501;28;20037;-54
2022/05/31 09:14:10;;;;;;;6.32;2.63;;;25.00;99.90;;;;;;4983784;28;20045;-55
2022/05/31 09:17:03;;;;;;;5.75;2.70;;;25.00;99.90;;;;;;5020088;28;20021;-54
2022/05/31 09:19:46;;;;;;;6.72;2.38;;;25.00;99.90;;;;;;5033592;28;20444;-55
2022/05/31 09:22:14;;;;;;;9.82;2.17;;;24.90;99.90;;;;;;5033694;28;20138;-55
2022/05/31 09:24:44;;;;;;;6.45;2.10;;;24.90;99.90;;;;;;5033506;28;20021;-54
2022/05/31 09:27:20;;;;;;;6.15;2.50;;;24.90;99.90;;;;;;5031536;28;20484;-54
2022/05/31 09:30:08;;;;;;;5.60;3.03;;;24.90;99.90;;;;;;5033165;28;20033;-55
2022/05/31 09:33:04;;;;;;;7.13;2.50;;;24.90;99.90;;;;;;5033221;28;20026;-54
2022/05/31 09:36:00;;;;;;;9.37;2.37;;;25.00;99.90;;;;;;5033381;28;20029;-54
2022/05/31 09:38:48;;;;;;;6.43;2.63;;;25.00;99.90;;;;;;5031240;28;20330;-54
2022/05/31 09:41:22;;;;;;;7.13;2.30;;;25.10;99.90;;;;;;5033469;28;20599;-54
2022/05/31 09:44:15;;;;;;;12.73;2.70;;;25.10;99.90;;;;;;5019634;28;20477;-55
2022/05/31 09:47:03;;;;;;;6.80;2.30;;;25.10;99.90;;;;;;5033250;28;20057;-54
2022/05/31 09:49:40;;;;;;;10.50;2.83;;;25.10;99.90;;;;;;5032913;28;20025;-54
2022/05/31 09:52:17;;;;;;;5.82;2.75;;;25.20;99.90;;;;;;5032838;28;20014;-55
2022/05/31 09:58:10;;;;;;;5.65;2.70;;;25.30;99.90;;;;;;5000986;28;20092;-54
2022/05/31 10:01:03;;;;;;;13.75;3.10;;;25.30;99.90;;;;;;5032278;28;20049;-54
2022/05/31 10:03:44;;;;;;;12.43;4.38;;;25.30;99.90;;;;;;5022869;28;20112;-54
2022/05/31 10:06:24;;;;;;;7.78;3.63;;;25.20;99.90;;;;;;5032181;28;20057;-55
2022/05/31 10:08:52;;;;;;;12.73;3.47;;;25.10;99.90;;;;;;5032726;28;20025;-54
2022/05/31 10:11:34;;;;;;;8.00;2.85;;;25.10;99.90;;;;;;5032523;28;20044;-53
2022/05/31 10:14:05;;;;;;;14.65;3.63;;;25.00;99.90;;;;;;5032488;28;20038;-55
2022/05/31 10:16:33;;;;;;;8.80;3.22;;;25.00;99.90;;;;;;5031257;28;20013;-54
2022/05/31 10:19:05;;;;;;;9.95;4.20;;;25.00;99.90;;;;;;5032436;28;20029;-54
2022/05/31 10:21:40;;;;;;;7.25;3.95;;;25.00;99.90;;;;;;5032561;28;20017;-54
2022/05/31 10:24:17;;;;;;;9.35;3.70;;;25.00;99.90;;;;;;5032405;28;20028;-54
2022/05/31 10:26:45;;;;;;;8.75;3.53;;;25.00;99.90;;;;;;5031201;28;20031;-55
2022/05/31 10:29:33;;;;;;;16.27;8.80;;;24.90;99.90;;;;;;5032280;28;20495;-54
2022/05/31 10:31:59;;;;;;;8.27;4.45;;;24.90;99.90;;;;;;5032239;28;20025;-54
2022/05/31 10:34:40;;;;;;;6.03;3.33;;;24.90;99.90;;;;;;5032310;28;20392;-54
2022/05/31 10:37:22;;;;;;;10.05;3.42;;;24.90;99.90;;;;;;5019237;28;20480;-54
2022/05/31 10:40:00;;;;;;;9.25;3.17;;;25.00;99.90;;;;;;5031851;28;20029;-54
2022/05/31 10:42:27;;;;;;;7.80;2.90;;;25.00;99.90;;;;;;5032089;28;20029;-54
2022/05/31 10:44:56;;;;;;;12.18;3.53;;;25.00;99.90;;;;;;5031822;28;20382;-55
2022/05/31 10:47:24;;;;;;;7.53;2.85;;;25.10;99.90;;;;;;5032016;28;20021;-54
2022/05/31 10:49:51;;;;;;;12.63;3.15;;;25.00;99.90;;;;;;5030599;28;20458;-54
2022/05/31 10:52:42;;;;;;;8.68;2.55;;;25.00;99.90;;;;;;5030778;28;20021;-54
2022/05/31 10:55:53;;;;;;;7.43;2.60;;;25.00;99.90;;;;;;5030439;28;20044;-54
2022/05/31 10:58:21;;;;;;;7.78;2.55;;;25.00;99.90;;;;;;4948487;28;20039;-54
2022/05/31 11:00:50;;;;;;;7.32;2.30;;;25.00;99.90;;;;;;5016841;28;20053;-54
2022/05/31 11:03:45;;;;;;;10.65;4.18;;;25.10;99.90;;;;;;5030089;28;20095;-54
2022/05/31 11:06:14;;;;;;;9.57;4.22;;;25.10;99.90;;;;;;5031214;28;20131;-54
2022/05/31 11:12:21;;;;;;;6.90;2.08;;;25.20;99.90;;;;;;5023902;28;20047;-55
2022/05/31 11:15:00;;;;;;;5.40;2.40;;;25.30;99.90;;;;;;5028441;28;20051;-54
2022/05/31 11:17:30;;;;;;;6.30;2.95;;;25.30;99.90;;;;;;5025787;28;20469;-55
2022/05/31 11:20:14;;;;;;;5.70;2.30;;;25.30;99.90;;;;;;5030140;28;20021;-55
2022/05/31 11:23:09;;;;;;;5.28;2.78;;;25.30;99.90;;;;;;5030377;28;20044;-54
2022/05/31 11:26:05;;;;;;;11.70;3.10;;;25.30;99.90;;;;;;5006684;28;20036;-55
2022/05/31 11:28:50;;;;;;;15.90;8.70;;;25.30;99.90;;;;;;5022196;28;20071;-53
2022/05/31 11:31:22;;;;;;;10.07;4.55;;;25.20;99.90;;;;;;5029450;28;20032;-54
2022/05/31 11:34:06;;;;;;;9.98;3.10;;;25.20;99.90;;;;;;5030385;28;20112;-54
2022/05/31 11:36:47;;;;;;;7.78;3.83;;;25.20;99.90;;;;;;5030220;28;20148;-54
2022/05/31 11:39:32;;;;;;;9.73;3.25;;;25.20;99.90;;;;;;5026208;28;20029;-55
2022/05/31 11:42:23;;;;;;;5.57;2.38;;;25.10;99.90;;;;;;5030118;28;20014;-55
2022/05/31 11:45:17;;;;;;;8.45;3.70;;;25.10;99.90;;;;;;5031114;28;20025;-54
2022/05/31 11:47:55;;;;;;;8.93;2.33;;;25.10;99.90;;;;;;5021653;28;20026;-54
2022/05/31 11:50:32;;;;;;;8.68;2.35;;;25.10;99.90;;;;;;5030534;28;20041;-54
2022/05/31 11:53:30;;;;;;;5.28;1.88;;;25.10;99.90;;;;;;5027315;28;20038;-54
2022/05/31 11:56:38;;;;;;;11.15;5.70;;;25.10;99.90;;;;;;4994050;28;20076;-54
2022/05/31 11:59:49;;;;;;;11.75;3.20;;;25.10;99.90;;;;;;5020036;28;20092;-55
2022/05/31 12:02:24;;;;;;;6.72;2.60;;;25.10;99.90;;;;;;4966693;28;20042;-54
2022/05/31 12:05:22;;;;;;;7.07;2.55;;;25.10;99.90;;;;;;4967459;28;20027;-54
2022/05/31 12:08:14;;;;;;;6.50;2.78;;;25.20;99.90;;;;;;4976258;28;20037;-53
2022/05/31 12:10:47;;;;;;;7.07;2.92;;;25.20;99.90;;;;;;5021160;28;20052;-53
2022/05/31 12:13:15;;;;;;;8.43;3.22;;;25.20;99.90;;;;;;5020592;28;20041;-52
2022/05/31 12:15:44;;;;;;;7.93;3.45;;;25.20;99.90;;;;;;5018379;28;20512;-55
2022/05/31 12:18:10;;;;;;;7.05;2.42;;;25.20;99.90;;;;;;5020967;28;20396;-54
2022/05/31 12:20:51;;;;;;;5.65;1.77;;;25.10;99.90;;;;;;5025898;28;20029;-55
2022/05/31 12:23:54;;;;;;;9.10;2.63;;;25.10;99.90;;;;;;5026275;28;20032;-55
2022/05/31 12:26:28;;;;;;;9.90;2.97;;;25.30;99.90;;;;;;5026573;28;20021;-54
2022/05/31 12:29:11;;;;;;;6.00;2.15;;;25.40;99.90;;;;;;5020078;28;20053;-54
2022/05/31 12:31:39;;;;;;;6.32;2.08;;;25.50;99.90;;;;;;5021517;28;20124;-54
2022/05/31 12:34:31;;;;;;;8.45;3.38;;;25.70;99.90;;;;;;5021739;28;20069;-53
2022/05/31 12:37:02;;;;;;;4.43;2.50;;;25.80;99.90;;;;;;5018784;28;20096;-53
2022/05/31 12:39:33;;;;;;;5.65;1.80;;;25.80;99.90;;;;;;5027424;28;20520;-53
2022/05/31 12:42:25;;;;;;;11.00;5.70;;;25.90;99.90;;;;;;5027741;28;20053;-52
2022/05/31 12:45:18;;;;;;;7.05;2.05;;;25.90;99.90;;;;;;5020499;28;20033;-53
2022/05/31 12:47:55;;;;;;;5.47;2.40;;;25.90;99.90;;;;;;5025367;28;20056;-53
2022/05/31 12:50:51;;;;;;;6.85;3.72;;;25.80;99.90;;;;;;5022967;28;20101;-52
2022/05/31 12:53:23;;;;;;;8.43;3.67;;;25.70;99.90;;;;;;5018121;28;20033;-51
2022/05/31 12:55:59;;;;;;;9.77;4.50;;;25.50;99.90;;;;;;5015891;28;20033;-53
2022/05/31 12:58:31;;;;;;;9.10;3.25;;;25.30;99.90;;;;;;5017161;28;20548;-51
2022/05/31 13:01:26;;;;;;;7.70;3.35;;;25.20;99.90;;;;;;5015426;28;20063;-53
2022/05/31 13:03:52;;;;;;;11.32;6.10;;;25.20;99.90;;;;;;5027608;28;20408;-52
2022/05/31 13:06:23;;;;;;;6.93;3.92;;;25.00;99.90;;;;;;5021225;28;20030;-53
2022/05/31 13:08:56;;;;;;;6.63;2.70;;;25.00;99.90;;;;;;5029343;28;20385;-55
2022/05/31 13:20:32;;;;;;;10.57;5.18;;;25.20;99.90;;;;;;5026118;28;20044;-55
2022/05/31 13:23:07;;;;;;;4.78;2.75;;;25.20;99.90;;;;;;5028898;28;20036;-55
2022/05/31 13:25:43;;;;;;;6.05;3.00;;;25.30;99.90;;;;;;5028766;28;20377;-55
2022/05/31 13:28:25;;;;;;;6.28;2.47;;;25.30;99.90;;;;;;5028927;28;20062;-55
2022/05/31 13:30:51;;;;;;;10.07;6.10;;;25.40;99.90;;;;;;5028149;28;20021;-54
2022/05/31 13:33:19;;;;;;;9.57;4.70;;;25.50;99.90;;;;;;5029663;28;20562;-54
2022/05/31 13:35:54;;;;;;;8.68;3.40;;;25.50;99.90;;;;;;5029624;28;20468;-53
2022/05/31 13:38:26;;;;;;;13.55;2.88;;;25.60;99.90;;;;;;5027813;28;20024;-55
2022/05/31 13:40:55;;;;;;;7.05;2.40;;;25.60;99.90;;;;;;5029320;28;20427;-55
2022/05/31 13:43:50;;;;;;;6.32;1.90;;;25.60;99.90;;;;;;5027853;28;20017;-56